sensor_id;sensor_type;location;lat;lon;timestamp;P1;durP1;ratioP1;P2;durP2;ratioP2
19585;SDS011;9939;49.246;9.106;2024-02-26T00:02:09;2.90;;;1.70;;
19585;SDS011;9939;49.246;9.106;2024-02-26T00:04:36;4.77;;;1.83;;
19585;SDS011;9939;49.246;9.106;2024-02-26T00:07:03;3.90;;;1.93;;
19585;SDS011;9939;49.246;9.106;2024-02-26T00:09:30;3.83;;;1.80;;
19585;SDS011;9939;49.246;9.106;2024-02-26T00:11:56;4.00;;;1.87;;
19585;SDS011;9939;49.246;9.106;2024-02-26T00:14:24;2.70;;;1.50;;
19585;SDS011;9939;49.246;9.106;2024-02-26T00:16:51;4.97;;;1.63;;
19585;SDS011;9939;49.246;9.106;2024-02-26T00:19:18;3.53;;;1.83;;
19585;SDS011;9939;49.246;9.106;2024-02-26T00:21:45;4.37;;;1.83;;
19585;SDS011;9939;49.246;9.106;2024-02-26T00:24:11;6.30;;;1.70;;
19585;SDS011;9939;49.246;9.106;2024-02-26T00:26:38;7.10;;;2.30;;
19585;SDS011;9939;49.246;9.106;2024-02-26T00:29:05;4.07;;;2.00;;
19585;SDS011;9939;49.246;9.106;2024-02-26T00:31:32;4.60;;;2.03;;
19585;SDS011;9939;49.246;9.106;2024-02-26T00:33:59;3.93;;;1.83;;
19585;SDS011;9939;49.246;9.106;2024-02-26T00:36:27;4.27;;;2.33;;
19585;SDS011;9939;49.246;9.106;2024-02-26T00:38:54;6.07;;;2.10;;
19585;SDS011;9939;49.246;9.106;2024-02-26T00:41:20;4.77;;;2.27;;
19585;SDS011;9939;49.246;9.106;2024-02-26T00:43:47;4.10;;;2.13;;
19585;SDS011;9939;49.246;9.106;2024-02-26T00:46:14;4.33;;;2.40;;
19585;SDS011;9939;49.246;9.106;2024-02-26T00:48:41;4.10;;;1.93;;
19585;SDS011;9939;49.246;9.106;2024-02-26T00:51:08;6.07;;;2.10;;
19585;SDS011;9939;49.246;9.106;2024-02-26T00:53:35;3.97;;;1.90;;
19585;SDS011;9939;49.246;9.106;2024-02-26T00:56:02;3.93;;;1.90;;
19585;SDS011;9939;49.246;9.106;2024-02-26T00:58:29;4.27;;;1.87;;
19585;SDS011;9939;49.246;9.106;2024-02-26T01:00:56;5.30;;;2.40;;
19585;SDS011;9939;49.246;9.106;2024-02-26T01:03:23;4.60;;;2.03;;
19585;SDS011;9939;49.246;9.106;2024-02-26T01:05:49;5.27;;;2.03;;
19585;SDS011;9939;49.246;9.106;2024-02-26T01:08:18;3.27;;;1.90;;
19585;SDS011;9939;49.246;9.106;2024-02-26T01:10:45;4.70;;;2.07;;
19585;SDS011;9939;49.246;9.106;2024-02-26T01:13:12;3.10;;;2.00;;
19585;SDS011;9939;49.246;9.106;2024-02-26T01:15:39;3.40;;;2.30;;
19585;SDS011;9939;49.246;9.106;2024-02-26T01:18:06;4.10;;;1.90;;
19585;SDS011;9939;49.246;9.106;2024-02-26T01:20:33;4.07;;;2.00;;
19585;SDS011;9939;49.246;9.106;2024-02-26T01:23:00;4.40;;;1.97;;
19585;SDS011;9939;49.246;9.106;2024-02-26T01:25:26;3.43;;;2.00;;
19585;SDS011;9939;49.246;9.106;2024-02-26T01:27:53;4.80;;;1.77;;
19585;SDS011;9939;49.246;9.106;2024-02-26T01:30:20;4.47;;;2.20;;
19585;SDS011;9939;49.246;9.106;2024-02-26T01:32:47;4.03;;;2.13;;
19585;SDS011;9939;49.246;9.106;2024-02-26T01:35:14;5.07;;;2.30;;
19585;SDS011;9939;49.246;9.106;2024-02-26T01:37:41;5.80;;;2.40;;
19585;SDS011;9939;49.246;9.106;2024-02-26T01:40:09;5.47;;;2.30;;
19585;SDS011;9939;49.246;9.106;2024-02-26T01:42:38;6.87;;;2.60;;
19585;SDS011;9939;49.246;9.106;2024-02-26T01:45:05;4.27;;;2.37;;
19585;SDS011;9939;49.246;9.106;2024-02-26T01:47:33;4.60;;;2.40;;
19585;SDS011;9939;49.246;9.106;2024-02-26T01:50:00;6.23;;;2.90;;
19585;SDS011;9939;49.246;9.106;2024-02-26T01:52:27;5.07;;;2.53;;
19585;SDS011;9939;49.246;9.106;2024-02-26T01:54:54;5.43;;;2.40;;
19585;SDS011;9939;49.246;9.106;2024-02-26T01:57:21;7.60;;;2.20;;
19585;SDS011;9939;49.246;9.106;2024-02-26T01:59:48;4.00;;;2.00;;
19585;SDS011;9939;49.246;9.106;2024-02-26T02:02:15;5.00;;;2.00;;
19585;SDS011;9939;49.246;9.106;2024-02-26T02:04:42;4.07;;;2.07;;
19585;SDS011;9939;49.246;9.106;2024-02-26T02:07:09;4.40;;;2.10;;
19585;SDS011;9939;49.246;9.106;2024-02-26T02:09:36;4.57;;;2.30;;
19585;SDS011;9939;49.246;9.106;2024-02-26T02:12:04;3.30;;;1.97;;
19585;SDS011;9939;49.246;9.106;2024-02-26T02:14:32;4.37;;;1.90;;
19585;SDS011;9939;49.246;9.106;2024-02-26T02:16:59;3.70;;;1.90;;
19585;SDS011;9939;49.246;9.106;2024-02-26T02:19:26;3.33;;;1.80;;
19585;SDS011;9939;49.246;9.106;2024-02-26T02:21:53;4.10;;;2.17;;
19585;SDS011;9939;49.246;9.106;2024-02-26T02:24:20;4.57;;;2.00;;
19585;SDS011;9939;49.246;9.106;2024-02-26T02:26:47;5.63;;;2.40;;
19585;SDS011;9939;49.246;9.106;2024-02-26T02:29:14;7.37;;;2.20;;
19585;SDS011;9939;49.246;9.106;2024-02-26T02:31:41;4.33;;;2.27;;
19585;SDS011;9939;49.246;9.106;2024-02-26T02:34:09;4.47;;;2.33;;
19585;SDS011;9939;49.246;9.106;2024-02-26T02:36:47;5.97;;;2.30;;
19585;SDS011;9939;49.246;9.106;2024-02-26T02:39:18;3.87;;;2.00;;
19585;SDS011;9939;49.246;9.106;2024-02-26T02:41:45;4.53;;;2.17;;
19585;SDS011;9939;49.246;9.106;2024-02-26T02:44:12;4.23;;;2.20;;
19585;SDS011;9939;49.246;9.106;2024-02-26T02:46:39;4.33;;;2.30;;
19585;SDS011;9939;49.246;9.106;2024-02-26T02:49:09;5.00;;;2.07;;
19585;SDS011;9939;49.246;9.106;2024-02-26T02:51:37;6.87;;;2.83;;
19585;SDS011;9939;49.246;9.106;2024-02-26T02:54:04;3.70;;;2.00;;
19585;SDS011;9939;49.246;9.106;2024-02-26T02:56:31;3.67;;;1.90;;
19585;SDS011;9939;49.246;9.106;2024-02-26T02:58:58;5.17;;;2.20;;
19585;SDS011;9939;49.246;9.106;2024-02-26T03:01:25;3.80;;;2.20;;
19585;SDS011;9939;49.246;9.106;2024-02-26T03:03:52;3.93;;;2.10;;
19585;SDS011;9939;49.246;9.106;2024-02-26T03:06:19;6.27;;;2.37;;
19585;SDS011;9939;49.246;9.106;2024-02-26T03:08:47;5.67;;;2.30;;
19585;SDS011;9939;49.246;9.106;2024-02-26T03:11:14;5.40;;;2.23;;
19585;SDS011;9939;49.246;9.106;2024-02-26T03:13:42;4.37;;;2.50;;
19585;SDS011;9939;49.246;9.106;2024-02-26T03:16:09;5.43;;;2.37;;
19585;SDS011;9939;49.246;9.106;2024-02-26T03:18:38;6.20;;;2.50;;
19585;SDS011;9939;49.246;9.106;2024-02-26T03:21:06;5.30;;;2.47;;
19585;SDS011;9939;49.246;9.106;2024-02-26T03:23:33;4.93;;;2.67;;
19585;SDS011;9939;49.246;9.106;2024-02-26T03:26:06;4.47;;;2.40;;
19585;SDS011;9939;49.246;9.106;2024-02-26T03:28:33;4.70;;;2.60;;
19585;SDS011;9939;49.246;9.106;2024-02-26T03:31:01;5.23;;;2.20;;
19585;SDS011;9939;49.246;9.106;2024-02-26T03:33:28;5.37;;;2.43;;
19585;SDS011;9939;49.246;9.106;2024-02-26T03:35:56;5.23;;;2.40;;
19585;SDS011;9939;49.246;9.106;2024-02-26T03:38:23;4.33;;;2.37;;
19585;SDS011;9939;49.246;9.106;2024-02-26T03:40:50;4.17;;;2.37;;
19585;SDS011;9939;49.246;9.106;2024-02-26T03:43:17;4.23;;;2.30;;
19585;SDS011;9939;49.246;9.106;2024-02-26T03:45:44;4.57;;;2.40;;
19585;SDS011;9939;49.246;9.106;2024-02-26T03:48:11;5.50;;;2.30;;
19585;SDS011;9939;49.246;9.106;2024-02-26T03:50:39;4.07;;;2.20;;
19585;SDS011;9939;49.246;9.106;2024-02-26T03:53:06;4.57;;;2.20;;
19585;SDS011;9939;49.246;9.106;2024-02-26T03:55:39;3.93;;;2.23;;
19585;SDS011;9939;49.246;9.106;2024-02-26T03:58:08;3.63;;;2.30;;
19585;SDS011;9939;49.246;9.106;2024-02-26T04:00:36;6.93;;;2.33;;
19585;SDS011;9939;49.246;9.106;2024-02-26T04:03:04;6.10;;;2.60;;
19585;SDS011;9939;49.246;9.106;2024-02-26T04:05:31;6.87;;;3.10;;
19585;SDS011;9939;49.246;9.106;2024-02-26T04:07:58;8.67;;;3.23;;
19585;SDS011;9939;49.246;9.106;2024-02-26T04:10:25;6.17;;;3.10;;
19585;SDS011;9939;49.246;9.106;2024-02-26T04:12:52;4.83;;;2.50;;
19585;SDS011;9939;49.246;9.106;2024-02-26T04:15:19;5.40;;;2.90;;
19585;SDS011;9939;49.246;9.106;2024-02-26T04:17:46;6.10;;;2.73;;
19585;SDS011;9939;49.246;9.106;2024-02-26T04:20:13;5.57;;;2.90;;
19585;SDS011;9939;49.246;9.106;2024-02-26T04:22:42;7.83;;;3.43;;
19585;SDS011;9939;49.246;9.106;2024-02-26T04:25:09;5.90;;;3.07;;
19585;SDS011;9939;49.246;9.106;2024-02-26T04:27:36;6.93;;;3.33;;
19585;SDS011;9939;49.246;9.106;2024-02-26T04:30:03;5.63;;;3.03;;
19585;SDS011;9939;49.246;9.106;2024-02-26T04:32:31;6.97;;;3.60;;
19585;SDS011;9939;49.246;9.106;2024-02-26T04:34:59;6.77;;;3.20;;
19585;SDS011;9939;49.246;9.106;2024-02-26T04:37:26;6.63;;;3.30;;
19585;SDS011;9939;49.246;9.106;2024-02-26T04:40:01;6.83;;;2.93;;
19585;SDS011;9939;49.246;9.106;2024-02-26T04:42:29;6.40;;;3.13;;
19585;SDS011;9939;49.246;9.106;2024-02-26T04:44:56;5.63;;;2.87;;
19585;SDS011;9939;49.246;9.106;2024-02-26T04:47:23;7.60;;;3.10;;
19585;SDS011;9939;49.246;9.106;2024-02-26T04:49:50;6.23;;;2.73;;
19585;SDS011;9939;49.246;9.106;2024-02-26T04:52:18;4.83;;;2.73;;
19585;SDS011;9939;49.246;9.106;2024-02-26T04:54:45;6.20;;;2.80;;
19585;SDS011;9939;49.246;9.106;2024-02-26T04:57:12;6.60;;;3.10;;
19585;SDS011;9939;49.246;9.106;2024-02-26T04:59:39;6.00;;;3.47;;
19585;SDS011;9939;49.246;9.106;2024-02-26T05:02:08;5.83;;;2.90;;
19585;SDS011;9939;49.246;9.106;2024-02-26T05:04:36;7.07;;;3.23;;
19585;SDS011;9939;49.246;9.106;2024-02-26T05:07:03;5.20;;;2.87;;
19585;SDS011;9939;49.246;9.106;2024-02-26T05:09:31;6.40;;;3.27;;
19585;SDS011;9939;49.246;9.106;2024-02-26T05:11:58;8.20;;;3.90;;
19585;SDS011;9939;49.246;9.106;2024-02-26T05:14:25;7.17;;;3.57;;
19585;SDS011;9939;49.246;9.106;2024-02-26T05:16:52;8.27;;;3.00;;
19585;SDS011;9939;49.246;9.106;2024-02-26T05:19:19;10.20;;;4.37;;
19585;SDS011;9939;49.246;9.106;2024-02-26T05:21:46;8.43;;;4.17;;
19585;SDS011;9939;49.246;9.106;2024-02-26T05:24:15;6.10;;;3.07;;
19585;SDS011;9939;49.246;9.106;2024-02-26T05:26:44;7.27;;;3.30;;
19585;SDS011;9939;49.246;9.106;2024-02-26T05:29:12;5.97;;;3.13;;
19585;SDS011;9939;49.246;9.106;2024-02-26T05:31:39;6.53;;;3.43;;
19585;SDS011;9939;49.246;9.106;2024-02-26T05:34:08;7.27;;;3.60;;
19585;SDS011;9939;49.246;9.106;2024-02-26T05:36:35;7.40;;;4.27;;
19585;SDS011;9939;49.246;9.106;2024-02-26T05:39:02;6.57;;;4.20;;
19585;SDS011;9939;49.246;9.106;2024-02-26T05:41:30;6.93;;;4.03;;
19585;SDS011;9939;49.246;9.106;2024-02-26T05:43:57;8.23;;;4.10;;
19585;SDS011;9939;49.246;9.106;2024-02-26T05:46:25;6.30;;;3.50;;
19585;SDS011;9939;49.246;9.106;2024-02-26T05:48:53;7.10;;;3.90;;
19585;SDS011;9939;49.246;9.106;2024-02-26T05:51:21;7.30;;;3.53;;
19585;SDS011;9939;49.246;9.106;2024-02-26T05:53:48;5.63;;;3.60;;
19585;SDS011;9939;49.246;9.106;2024-02-26T05:56:21;6.27;;;3.70;;
19585;SDS011;9939;49.246;9.106;2024-02-26T05:58:48;7.17;;;3.37;;
19585;SDS011;9939;49.246;9.106;2024-02-26T06:01:16;6.10;;;3.30;;
19585;SDS011;9939;49.246;9.106;2024-02-26T06:03:44;6.27;;;3.60;;
19585;SDS011;9939;49.246;9.106;2024-02-26T06:06:11;6.73;;;3.73;;
19585;SDS011;9939;49.246;9.106;2024-02-26T06:08:39;6.57;;;3.43;;
19585;SDS011;9939;49.246;9.106;2024-02-26T06:11:07;8.57;;;3.43;;
19585;SDS011;9939;49.246;9.106;2024-02-26T06:13:34;6.90;;;3.37;;
19585;SDS011;9939;49.246;9.106;2024-02-26T06:16:01;6.27;;;3.00;;
19585;SDS011;9939;49.246;9.106;2024-02-26T06:18:29;4.67;;;3.07;;
19585;SDS011;9939;49.246;9.106;2024-02-26T06:20:57;6.20;;;2.90;;
19585;SDS011;9939;49.246;9.106;2024-02-26T06:23:24;5.83;;;2.80;;
19585;SDS011;9939;49.246;9.106;2024-02-26T06:25:51;4.87;;;2.60;;
19585;SDS011;9939;49.246;9.106;2024-02-26T06:28:18;6.00;;;2.97;;
19585;SDS011;9939;49.246;9.106;2024-02-26T06:30:45;5.23;;;2.50;;
19585;SDS011;9939;49.246;9.106;2024-02-26T06:33:12;7.33;;;2.43;;
19585;SDS011;9939;49.246;9.106;2024-02-26T06:35:41;4.37;;;2.50;;
19585;SDS011;9939;49.246;9.106;2024-02-26T06:38:08;5.40;;;2.50;;
19585;SDS011;9939;49.246;9.106;2024-02-26T06:40:36;7.50;;;3.20;;
19585;SDS011;9939;49.246;9.106;2024-02-26T06:43:02;6.40;;;3.50;;
19585;SDS011;9939;49.246;9.106;2024-02-26T06:45:30;7.10;;;3.53;;
19585;SDS011;9939;49.246;9.106;2024-02-26T06:47:57;7.23;;;3.87;;
19585;SDS011;9939;49.246;9.106;2024-02-26T06:50:24;7.20;;;3.20;;
19585;SDS011;9939;49.246;9.106;2024-02-26T06:52:51;7.23;;;3.23;;
19585;SDS011;9939;49.246;9.106;2024-02-26T06:55:18;6.57;;;3.40;;
19585;SDS011;9939;49.246;9.106;2024-02-26T06:57:45;6.03;;;3.23;;
19585;SDS011;9939;49.246;9.106;2024-02-26T07:00:12;6.13;;;3.43;;
19585;SDS011;9939;49.246;9.106;2024-02-26T07:02:41;5.73;;;3.30;;
19585;SDS011;9939;49.246;9.106;2024-02-26T07:05:08;7.80;;;3.83;;
19585;SDS011;9939;49.246;9.106;2024-02-26T07:07:36;7.63;;;3.50;;
19585;SDS011;9939;49.246;9.106;2024-02-26T07:10:03;5.33;;;2.87;;
19585;SDS011;9939;49.246;9.106;2024-02-26T07:12:32;6.80;;;3.60;;
19585;SDS011;9939;49.246;9.106;2024-02-26T07:14:59;7.33;;;3.77;;
19585;SDS011;9939;49.246;9.106;2024-02-26T07:17:27;9.50;;;3.77;;
19585;SDS011;9939;49.246;9.106;2024-02-26T07:19:54;7.10;;;3.20;;
19585;SDS011;9939;49.246;9.106;2024-02-26T07:22:21;7.70;;;3.40;;
19585;SDS011;9939;49.246;9.106;2024-02-26T07:24:48;7.70;;;3.77;;
19585;SDS011;9939;49.246;9.106;2024-02-26T07:27:15;5.50;;;3.00;;
19585;SDS011;9939;49.246;9.106;2024-02-26T07:29:44;5.33;;;3.00;;
19585;SDS011;9939;49.246;9.106;2024-02-26T07:32:11;9.07;;;4.27;;
19585;SDS011;9939;49.246;9.106;2024-02-26T07:34:38;7.57;;;4.10;;
19585;SDS011;9939;49.246;9.106;2024-02-26T07:37:08;6.10;;;3.33;;
19585;SDS011;9939;49.246;9.106;2024-02-26T07:39:35;7.40;;;3.77;;
19585;SDS011;9939;49.246;9.106;2024-02-26T07:42:03;9.13;;;3.53;;
19585;SDS011;9939;49.246;9.106;2024-02-26T07:44:30;6.37;;;3.50;;
19585;SDS011;9939;49.246;9.106;2024-02-26T07:46:58;7.57;;;3.03;;
19585;SDS011;9939;49.246;9.106;2024-02-26T07:49:25;5.23;;;3.20;;
19585;SDS011;9939;49.246;9.106;2024-02-26T07:51:52;11.10;;;3.77;;
19585;SDS011;9939;49.246;9.106;2024-02-26T07:54:19;8.43;;;3.83;;
19585;SDS011;9939;49.246;9.106;2024-02-26T07:56:46;6.97;;;3.57;;
19585;SDS011;9939;49.246;9.106;2024-02-26T07:59:13;6.33;;;3.30;;
19585;SDS011;9939;49.246;9.106;2024-02-26T08:01:40;6.77;;;3.63;;
19585;SDS011;9939;49.246;9.106;2024-02-26T08:04:08;6.20;;;3.30;;
19585;SDS011;9939;49.246;9.106;2024-02-26T08:06:35;7.27;;;3.37;;
19585;SDS011;9939;49.246;9.106;2024-02-26T08:09:04;6.07;;;3.50;;
19585;SDS011;9939;49.246;9.106;2024-02-26T08:11:31;8.53;;;4.27;;
19585;SDS011;9939;49.246;9.106;2024-02-26T08:13:58;7.70;;;4.20;;
19585;SDS011;9939;49.246;9.106;2024-02-26T08:16:25;7.37;;;4.00;;
19585;SDS011;9939;49.246;9.106;2024-02-26T08:18:53;7.77;;;3.93;;
19585;SDS011;9939;49.246;9.106;2024-02-26T08:21:20;11.60;;;4.33;;
19585;SDS011;9939;49.246;9.106;2024-02-26T08:23:47;9.87;;;5.47;;
19585;SDS011;9939;49.246;9.106;2024-02-26T08:26:14;14.03;;;4.47;;
19585;SDS011;9939;49.246;9.106;2024-02-26T08:28:41;7.53;;;3.90;;
19585;SDS011;9939;49.246;9.106;2024-02-26T08:31:08;6.67;;;3.70;;
19585;SDS011;9939;49.246;9.106;2024-02-26T08:33:36;9.73;;;4.30;;
19585;SDS011;9939;49.246;9.106;2024-02-26T08:36:04;8.30;;;3.97;;
19585;SDS011;9939;49.246;9.106;2024-02-26T08:38:32;7.67;;;4.13;;
19585;SDS011;9939;49.246;9.106;2024-02-26T08:41:01;8.43;;;3.83;;
19585;SDS011;9939;49.246;9.106;2024-02-26T08:43:31;8.00;;;4.03;;
19585;SDS011;9939;49.246;9.106;2024-02-26T08:45:58;7.70;;;4.40;;
19585;SDS011;9939;49.246;9.106;2024-02-26T08:48:25;7.03;;;3.70;;
19585;SDS011;9939;49.246;9.106;2024-02-26T08:50:52;7.93;;;4.20;;
19585;SDS011;9939;49.246;9.106;2024-02-26T08:53:19;7.23;;;3.80;;
19585;SDS011;9939;49.246;9.106;2024-02-26T08:55:57;9.10;;;4.40;;
19585;SDS011;9939;49.246;9.106;2024-02-26T08:58:24;8.53;;;3.63;;
19585;SDS011;9939;49.246;9.106;2024-02-26T09:00:51;9.80;;;4.37;;
19585;SDS011;9939;49.246;9.106;2024-02-26T09:03:18;7.93;;;4.20;;
19585;SDS011;9939;49.246;9.106;2024-02-26T09:05:46;7.33;;;3.97;;
19585;SDS011;9939;49.246;9.106;2024-02-26T09:08:13;7.43;;;4.13;;
19585;SDS011;9939;49.246;9.106;2024-02-26T09:10:40;7.80;;;3.60;;
19585;SDS011;9939;49.246;9.106;2024-02-26T09:13:08;8.43;;;3.73;;
19585;SDS011;9939;49.246;9.106;2024-02-26T09:15:35;8.00;;;3.87;;
19585;SDS011;9939;49.246;9.106;2024-02-26T09:18:02;6.37;;;3.50;;
19585;SDS011;9939;49.246;9.106;2024-02-26T09:20:29;9.27;;;4.03;;
19585;SDS011;9939;49.246;9.106;2024-02-26T09:22:57;6.93;;;3.87;;
19585;SDS011;9939;49.246;9.106;2024-02-26T09:25:24;6.93;;;3.57;;
19585;SDS011;9939;49.246;9.106;2024-02-26T09:27:51;10.77;;;3.90;;
19585;SDS011;9939;49.246;9.106;2024-02-26T09:30:18;7.73;;;3.93;;
19585;SDS011;9939;49.246;9.106;2024-02-26T09:32:46;7.07;;;3.80;;
19585;SDS011;9939;49.246;9.106;2024-02-26T09:35:14;9.80;;;3.50;;
19585;SDS011;9939;49.246;9.106;2024-02-26T09:37:41;7.90;;;4.00;;
19585;SDS011;9939;49.246;9.106;2024-02-26T09:40:10;6.17;;;3.50;;
19585;SDS011;9939;49.246;9.106;2024-02-26T09:42:42;5.83;;;3.40;;
19585;SDS011;9939;49.246;9.106;2024-02-26T09:45:20;7.87;;;3.67;;
19585;SDS011;9939;49.246;9.106;2024-02-26T09:47:49;7.40;;;3.30;;
19585;SDS011;9939;49.246;9.106;2024-02-26T09:50:17;7.57;;;3.40;;
19585;SDS011;9939;49.246;9.106;2024-02-26T09:52:44;6.43;;;3.43;;
19585;SDS011;9939;49.246;9.106;2024-02-26T09:55:11;6.70;;;3.47;;
19585;SDS011;9939;49.246;9.106;2024-02-26T09:57:39;7.47;;;3.70;;
19585;SDS011;9939;49.246;9.106;2024-02-26T10:00:14;6.93;;;3.60;;
19585;SDS011;9939;49.246;9.106;2024-02-26T10:02:45;6.13;;;3.30;;
19585;SDS011;9939;49.246;9.106;2024-02-26T10:05:18;6.97;;;3.70;;
19585;SDS011;9939;49.246;9.106;2024-02-26T10:07:46;7.27;;;3.93;;
19585;SDS011;9939;49.246;9.106;2024-02-26T10:10:14;5.93;;;3.50;;
19585;SDS011;9939;49.246;9.106;2024-02-26T10:12:42;5.83;;;3.33;;
19585;SDS011;9939;49.246;9.106;2024-02-26T10:15:09;6.70;;;3.53;;
19585;SDS011;9939;49.246;9.106;2024-02-26T10:17:36;5.10;;;3.20;;
19585;SDS011;9939;49.246;9.106;2024-02-26T10:20:14;7.67;;;3.50;;
19585;SDS011;9939;49.246;9.106;2024-02-26T10:22:46;7.73;;;3.43;;
19585;SDS011;9939;49.246;9.106;2024-02-26T10:25:13;6.37;;;3.10;;
19585;SDS011;9939;49.246;9.106;2024-02-26T10:27:41;7.57;;;3.70;;
19585;SDS011;9939;49.246;9.106;2024-02-26T10:30:18;6.07;;;2.87;;
19585;SDS011;9939;49.246;9.106;2024-02-26T10:32:48;6.40;;;3.50;;
19585;SDS011;9939;49.246;9.106;2024-02-26T10:35:17;6.20;;;3.33;;
19585;SDS011;9939;49.246;9.106;2024-02-26T10:37:44;9.60;;;4.23;;
19585;SDS011;9939;49.246;9.106;2024-02-26T10:40:13;6.83;;;3.50;;
19585;SDS011;9939;49.246;9.106;2024-02-26T10:42:40;5.93;;;3.30;;
19585;SDS011;9939;49.246;9.106;2024-02-26T10:45:08;6.97;;;3.37;;
19585;SDS011;9939;49.246;9.106;2024-02-26T10:47:36;5.50;;;3.40;;
19585;SDS011;9939;49.246;9.106;2024-02-26T10:50:04;5.73;;;3.03;;
19585;SDS011;9939;49.246;9.106;2024-02-26T10:52:33;6.73;;;3.47;;
19585;SDS011;9939;49.246;9.106;2024-02-26T10:55:02;5.30;;;3.03;;
19585;SDS011;9939;49.246;9.106;2024-02-26T10:57:50;5.30;;;3.00;;
19585;SDS011;9939;49.246;9.106;2024-02-26T11:00:19;7.13;;;3.00;;
19585;SDS011;9939;49.246;9.106;2024-02-26T11:02:46;6.83;;;2.60;;
19585;SDS011;9939;49.246;9.106;2024-02-26T11:05:14;5.83;;;2.90;;
19585;SDS011;9939;49.246;9.106;2024-02-26T11:10:11;5.37;;;3.30;;
19585;SDS011;9939;49.246;9.106;2024-02-26T11:12:39;8.47;;;4.27;;
19585;SDS011;9939;49.246;9.106;2024-02-26T11:29:56;5.50;;;2.60;;
19585;SDS011;9939;49.246;9.106;2024-02-26T11:32:27;4.20;;;2.60;;
19585;SDS011;9939;49.246;9.106;2024-02-26T11:34:57;4.13;;;2.40;;
19585;SDS011;9939;49.246;9.106;2024-02-26T11:37:24;3.60;;;2.40;;
19585;SDS011;9939;49.246;9.106;2024-02-26T11:39:52;5.17;;;2.50;;
19585;SDS011;9939;49.246;9.106;2024-02-26T11:42:23;3.23;;;1.97;;
19585;SDS011;9939;49.246;9.106;2024-02-26T11:44:54;4.00;;;2.20;;
19585;SDS011;9939;49.246;9.106;2024-02-26T11:47:27;3.20;;;1.93;;
19585;SDS011;9939;49.246;9.106;2024-02-26T11:49:55;3.40;;;1.90;;
19585;SDS011;9939;49.246;9.106;2024-02-26T11:52:22;3.40;;;2.00;;
19585;SDS011;9939;49.246;9.106;2024-02-26T11:54:50;4.10;;;2.30;;
19585;SDS011;9939;49.246;9.106;2024-02-26T11:59:49;3.80;;;2.10;;
19585;SDS011;9939;49.246;9.106;2024-02-26T12:05:10;5.07;;;2.07;;
19585;SDS011;9939;49.246;9.106;2024-02-26T12:07:54;3.33;;;1.80;;
19585;SDS011;9939;49.246;9.106;2024-02-26T12:10:35;3.17;;;1.80;;
19585;SDS011;9939;49.246;9.106;2024-02-26T12:13:11;3.87;;;2.20;;
19585;SDS011;9939;49.246;9.106;2024-02-26T12:15:46;4.03;;;2.10;;
19585;SDS011;9939;49.246;9.106;2024-02-26T12:18:22;4.50;;;2.17;;
19585;SDS011;9939;49.246;9.106;2024-02-26T12:21:02;3.13;;;1.93;;
19585;SDS011;9939;49.246;9.106;2024-02-26T12:23:31;3.37;;;2.17;;
19585;SDS011;9939;49.246;9.106;2024-02-26T12:25:58;4.40;;;2.30;;
19585;SDS011;9939;49.246;9.106;2024-02-26T12:28:29;3.37;;;1.90;;
19585;SDS011;9939;49.246;9.106;2024-02-26T12:30:56;3.50;;;2.00;;
19585;SDS011;9939;49.246;9.106;2024-02-26T12:33:26;3.40;;;2.40;;
19585;SDS011;9939;49.246;9.106;2024-02-26T12:35:55;5.10;;;1.90;;
19585;SDS011;9939;49.246;9.106;2024-02-26T12:38:22;3.47;;;2.00;;
19585;SDS011;9939;49.246;9.106;2024-02-26T12:40:50;4.53;;;1.90;;
19585;SDS011;9939;49.246;9.106;2024-02-26T12:43:17;3.40;;;1.87;;
19585;SDS011;9939;49.246;9.106;2024-02-26T12:45:45;2.60;;;1.60;;
19585;SDS011;9939;49.246;9.106;2024-02-26T12:48:13;3.10;;;1.97;;
19585;SDS011;9939;49.246;9.106;2024-02-26T12:50:44;2.70;;;1.30;;
19585;SDS011;9939;49.246;9.106;2024-02-26T12:53:13;2.67;;;1.40;;
19585;SDS011;9939;49.246;9.106;2024-02-26T12:55:41;1.30;;;1.10;;
19585;SDS011;9939;49.246;9.106;2024-02-26T12:58:09;1.90;;;1.10;;
19585;SDS011;9939;49.246;9.106;2024-02-26T13:00:36;2.00;;;1.10;;
19585;SDS011;9939;49.246;9.106;2024-02-26T13:03:03;2.87;;;1.40;;
19585;SDS011;9939;49.246;9.106;2024-02-26T13:05:31;2.27;;;1.40;;
19585;SDS011;9939;49.246;9.106;2024-02-26T13:07:59;1.77;;;1.13;;
19585;SDS011;9939;49.246;9.106;2024-02-26T13:10:26;3.67;;;1.50;;
19585;SDS011;9939;49.246;9.106;2024-02-26T13:12:53;1.87;;;1.00;;
19585;SDS011;9939;49.246;9.106;2024-02-26T13:15:21;1.53;;;0.93;;
19585;SDS011;9939;49.246;9.106;2024-02-26T13:17:49;1.73;;;1.00;;
19585;SDS011;9939;49.246;9.106;2024-02-26T13:20:26;1.77;;;0.93;;
19585;SDS011;9939;49.246;9.106;2024-02-26T13:25:32;1.57;;;1.20;;
19585;SDS011;9939;49.246;9.106;2024-02-26T13:28:16;2.43;;;0.83;;
19585;SDS011;9939;49.246;9.106;2024-02-26T13:30:51;1.87;;;0.80;;
19585;SDS011;9939;49.246;9.106;2024-02-26T13:33:19;2.40;;;0.80;;
19585;SDS011;9939;49.246;9.106;2024-02-26T13:35:48;1.00;;;0.73;;
19585;SDS011;9939;49.246;9.106;2024-02-26T13:38:16;1.43;;;0.90;;
19585;SDS011;9939;49.246;9.106;2024-02-26T13:40:43;1.33;;;0.80;;
19585;SDS011;9939;49.246;9.106;2024-02-26T13:43:10;1.93;;;1.00;;
19585;SDS011;9939;49.246;9.106;2024-02-26T13:45:37;1.73;;;0.90;;
19585;SDS011;9939;49.246;9.106;2024-02-26T13:48:06;1.03;;;0.90;;
19585;SDS011;9939;49.246;9.106;2024-02-26T13:50:34;1.30;;;1.00;;
19585;SDS011;9939;49.246;9.106;2024-02-26T13:53:01;1.87;;;1.10;;
19585;SDS011;9939;49.246;9.106;2024-02-26T13:55:30;4.23;;;1.20;;
19585;SDS011;9939;49.246;9.106;2024-02-26T13:57:58;1.30;;;0.97;;
19585;SDS011;9939;49.246;9.106;2024-02-26T14:00:29;1.00;;;0.80;;
19585;SDS011;9939;49.246;9.106;2024-02-26T14:03:00;2.17;;;1.03;;
19585;SDS011;9939;49.246;9.106;2024-02-26T14:05:28;1.10;;;0.97;;
19585;SDS011;9939;49.246;9.106;2024-02-26T14:07:56;1.60;;;1.10;;
19585;SDS011;9939;49.246;9.106;2024-02-26T14:10:24;2.03;;;1.00;;
19585;SDS011;9939;49.246;9.106;2024-02-26T14:12:51;3.20;;;1.00;;
19585;SDS011;9939;49.246;9.106;2024-02-26T14:15:17;2.73;;;1.27;;
19585;SDS011;9939;49.246;9.106;2024-02-26T14:17:45;4.10;;;1.47;;
19585;SDS011;9939;49.246;9.106;2024-02-26T14:20:20;1.80;;;0.90;;
19585;SDS011;9939;49.246;9.106;2024-02-26T14:22:48;1.20;;;0.80;;
19585;SDS011;9939;49.246;9.106;2024-02-26T14:25:17;1.57;;;0.90;;
19585;SDS011;9939;49.246;9.106;2024-02-26T14:27:45;1.40;;;0.80;;
19585;SDS011;9939;49.246;9.106;2024-02-26T14:30:12;1.67;;;0.70;;
19585;SDS011;9939;49.246;9.106;2024-02-26T14:32:40;5.57;;;0.93;;
19585;SDS011;9939;49.246;9.106;2024-02-26T14:35:08;1.20;;;0.70;;
19585;SDS011;9939;49.246;9.106;2024-02-26T14:37:43;1.43;;;1.03;;
19585;SDS011;9939;49.246;9.106;2024-02-26T14:40:15;1.20;;;0.80;;
19585;SDS011;9939;49.246;9.106;2024-02-26T14:42:42;2.30;;;1.07;;
19585;SDS011;9939;49.246;9.106;2024-02-26T14:59:53;1.20;;;0.97;;
19585;SDS011;9939;49.246;9.106;2024-02-26T15:02:20;1.17;;;0.93;;
19585;SDS011;9939;49.246;9.106;2024-02-26T15:04:47;1.33;;;0.70;;
19585;SDS011;9939;49.246;9.106;2024-02-26T15:07:15;1.93;;;1.00;;
19585;SDS011;9939;49.246;9.106;2024-02-26T15:09:42;2.33;;;1.07;;
19585;SDS011;9939;49.246;9.106;2024-02-26T15:12:10;2.73;;;1.63;;
19585;SDS011;9939;49.246;9.106;2024-02-26T15:14:37;4.37;;;2.50;;
19585;SDS011;9939;49.246;9.106;2024-02-26T15:17:05;3.80;;;2.47;;
19585;SDS011;9939;49.246;9.106;2024-02-26T15:19:37;4.23;;;2.10;;
19585;SDS011;9939;49.246;9.106;2024-02-26T15:22:04;4.07;;;2.13;;
19585;SDS011;9939;49.246;9.106;2024-02-26T15:24:31;4.57;;;2.50;;
19585;SDS011;9939;49.246;9.106;2024-02-26T15:26:58;6.27;;;2.70;;
19585;SDS011;9939;49.246;9.106;2024-02-26T15:29:25;23.67;;;13.17;;
19585;SDS011;9939;49.246;9.106;2024-02-26T15:31:53;7.80;;;3.03;;
19585;SDS011;9939;49.246;9.106;2024-02-26T15:34:20;4.40;;;2.47;;
19585;SDS011;9939;49.246;9.106;2024-02-26T15:36:47;6.20;;;3.07;;
19585;SDS011;9939;49.246;9.106;2024-02-26T15:39:14;8.00;;;2.93;;
19585;SDS011;9939;49.246;9.106;2024-02-26T15:41:41;6.97;;;2.93;;
19585;SDS011;9939;49.246;9.106;2024-02-26T15:44:08;5.90;;;3.70;;
19585;SDS011;9939;49.246;9.106;2024-02-26T15:46:41;7.23;;;3.57;;